Stockholm-Arlanda Airport

ESSA · Stockholm, Sweden

METAR history ESSA · Stockholm-Arlanda Airport

Below you see METARs of the last few days. Select a year to browse through older METARs, from the year 2007 onwards.

April 16, 2024

Time Code Weather Temp. Visibility Ceiling Wind METAR/SPECI
20:20
V
2 °C 10 km+ - 350° 350° 10 kt METAR ESSA 161820Z 35010KT CAVOK 02/M02 Q1002 NOSIG
19:50
V
3 °C 10 km+ - 360° 360° 11 kt METAR ESSA 161750Z 36011KT CAVOK 03/M02 Q1002 NOSIG
19:20
V
3 °C 10 km+ - 020° 020° 10 kt METAR ESSA 161720Z 02010KT 9999 FEW038 03/M02 Q1002 NOSIG
18:50
M
3 °C 10 km+ 2,500 ft 360° 360° 11 kt METAR ESSA 161650Z 36011KT 9999 -DZ BKN025 03/M01 Q1002 NOSIG
18:20
M
4 °C 10 km+ 2,700 ft 360° 360° 14 kt METAR ESSA 161620Z 36014KT 9999 DZ FEW012 BKN027 04/M01 Q1002 NOSIG
17:50
V
4 °C 10 km+ 3,100 ft 020° 020° 10 kt METAR ESSA 161550Z 02010KT 9999 BKN031 04/M00 Q1002 NOSIG
17:20
M
3 °C 10 km+ 2,000 ft 010° 010° 16 kt METAR ESSA 161520Z 01016KT 9999 -RA FEW011 BKN020 03/M00 Q1002 NOSIG
16:50
M
3 °C 10 km+ 2,600 ft 010° 010° 14 kt METAR ESSA 161450Z 01014KT 9999 -RA BKN026 03/00 Q1001 NOSIG
16:20
M
4 °C 10 km+ 2,900 ft 020° 020° 14 kt METAR ESSA 161420Z 02014KT 9999 BKN029 04/M01 Q1001 NOSIG
15:50
M
5 °C 10 km+ 2,800 ft 020° 020° 13 kt METAR ESSA 161350Z 02013KT 9999 BKN028 OVC039 05/M01 Q1001 NOSIG
15:20
M
5 °C 10 km+ 3,000 ft 020° 020° 16 kt METAR ESSA 161320Z 02016KT 9999 BKN030 05/M01 Q1001 NOSIG
14:50
M
4 °C 10 km+ 2,500 ft 360° 360° 12 kt METAR ESSA 161250Z 36012KT 9999 FEW019 BKN025 04/00 Q1001 NOSIG
14:20
M
4 °C 10 km+ 2,500 ft 020° 020° 18 kt METAR ESSA 161220Z 02018KT 9999 -RA FEW019 BKN025 BKN031 04/01 Q1001 NOSIG
13:50
M
5 °C 10 km+ 2,300 ft 030° 030° 17 kt METAR ESSA 161150Z 03017KT 9999 -RA BKN023 05/M00 Q1001 NOSIG
13:20
M
5 °C 10 km+ 2,100 ft 020° 020° 16 kt METAR ESSA 161120Z 02016KT 9999 OVC021 05/00 Q1000 NOSIG
12:50
M
4 °C 10 km+ 2,100 ft 360° 360° 15 kt METAR ESSA 161050Z 36015KT 9999 BKN021 04/00 Q1000 TEMPO BKN009
12:20
M
4 °C 10 km+ 1,800 ft 360° 360° 15 kt METAR ESSA 161020Z 36015KT 9999 BKN018 04/00 Q1000 TEMPO BKN009
11:50
M
4 °C 10 km+ 1,300 ft 010° 010° 14 kt METAR ESSA 160950Z 01014KT 9999 BKN013 04/02 Q1000 TEMPO BKN009
11:20
M
4 °C 10 km+ 1,100 ft 010° 010° 12 kt METAR ESSA 160920Z 01012KT 9999 -DZ BKN011 OVC021 04/02 Q1000 TEMPO BKN015
10:50
M
3 °C 7 km 1,200 ft 020° 020° 11 kt METAR ESSA 160850Z 02011KT 7000 -RA BKN012 03/02 Q1000 TEMPO BKN015
10:20
M
3 °C 10 km+ 1,200 ft 010° 010° 10 kt METAR ESSA 160820Z 01010KT 9999 BKN012 03/01 Q1000 TEMPO BKN015
09:50
M
3 °C 10 km+ 1,000 ft 010° 010° 9 kt METAR ESSA 160750Z 01009KT 9999 BKN010 03/01 Q1000 TEMPO BKN015
09:20
I
3 °C 10 km+ 900 ft 010° 010° 9 kt METAR ESSA 160720Z 01009KT 9999 BKN009 03/01 Q1000 TEMPO BKN015
08:50
I
2 °C 10 km+ 900 ft 360° 360° 8 kt METAR ESSA 160650Z 36008KT 9999 -RA BKN009 02/01 Q1000 TEMPO BKN015
08:20
I
2 °C 10 km+ 800 ft 350° 350° 8 kt METAR ESSA 160620Z 35008KT 9999 BKN008 02/01 Q1000 TEMPO BKN015
07:50
V
2 °C 10 km+ 6,200 ft 350° 350° 8 kt METAR ESSA 160550Z 35008KT 9999 FEW006 SCT036 BKN062 02/01 Q1000 BECMG OVC006
07:20
V
1 °C 10 km+ 3,700 ft 350° 350° 8 kt METAR ESSA 160520Z 35008KT 9999 SCT004 BKN037 01/01 Q1000 BECMG OVC005
06:50
L
0 °C 10 km+ 300 ft 360° 360° 7 kt METAR ESSA 160450Z 36007KT 9999 OVC003 00/00 Q1000 NOSIG
06:20
L
0 °C 8 km 200 ft 340° 340° 6 kt METAR ESSA 160420Z 34006KT 8000 OVC002 M00/M00 Q1000 NOSIG
05:50
L
0 °C 10 km+ 200 ft 340° 340° 6 kt METAR ESSA 160350Z 34006KT 9999 OVC002 M00/M01 Q1000 NOSIG
05:20
L
-1 °C 10 km+ 300 ft 360° 360° 5 kt METAR ESSA 160320Z 36005KT 9999 BKN003 OVC026 M01/M01 Q1000 NOSIG
04:50
L
-1 °C 10 km+ 200 ft 360° 360° 5 kt METAR ESSA 160250Z 36005KT 9999 OVC002 M01/M01 Q1000 BECMG 0700 FZFG VV002
04:20
L
-2 °C 1.8 km 200 ft 010° 010° 5 kt METAR ESSA 160220Z 01005KT 1800 BR BKN002 M02/M02 Q1000 BECMG 0700 FZFG VV002
03:50
I
-2 °C 1.5 km 2,200 ft 360° 360° 5 kt METAR ESSA 160150Z 36005KT 1500 BR BKN022 M02/M02 Q1000 BECMG 0700 FZFG VV002
03:20
M
-1 °C 10 km+ 1,800 ft 040° 040° 5 kt METAR ESSA 160120Z 04005KT 9999 BKN018 M01/M02 Q1000 NOSIG
02:50
V
-1 °C 10 km+ - 030° 030° 6 kt METAR ESSA 160050Z 03006KT 9999 FEW003 M01/M02 Q1000 NOSIG
02:20
V
0 °C 10 km+ - 010° 010° 5 kt METAR ESSA 160020Z 01005KT CAVOK M00/M01 Q1000 NOSIG
01:50
V
0 °C 10 km+ - 020° 020° 6 kt METAR ESSA 152350Z 02006KT CAVOK 00/M00 Q1000 NOSIG
01:20
V
1 °C 10 km+ - 040° 040° 6 kt METAR ESSA 152320Z 04006KT CAVOK 01/M00 Q1001 NOSIG
00:50
V
1 °C 10 km+ - 030° 030° 6 kt METAR ESSA 152250Z 03006KT CAVOK 01/00 Q1001 NOSIG
00:20
V
1 °C 10 km+ - 010° 010° 4 kt METAR ESSA 152220Z 01004KT CAVOK 01/00 Q1001 NOSIG

April 15, 2024

Time Code Weather Temp. Visibility Ceiling Wind METAR/SPECI
23:50
V
0 °C 10 km+ - 250° 250° 2 kt METAR ESSA 152150Z 25002KT CAVOK 00/M00 Q1001 NOSIG
23:20
V
1 °C 10 km+ - Var Var 1 kt METAR ESSA 152120Z VRB01KT CAVOK 01/00 Q1001 NOSIG
22:50
V
2 °C 10 km+ - 090° 090° 3 kt METAR ESSA 152050Z 09003KT CAVOK 02/01 Q1001 NOSIG
22:20
V
4 °C 10 km+ - 080° 080° 3 kt METAR ESSA 152020Z 08003KT CAVOK 04/01 Q1001 NOSIG
21:50
V
4 °C 10 km+ 7,000 ft 100° 100° 5 kt METAR ESSA 151950Z 10005KT 9999 FEW026 BKN070 04/01 Q1001 NOSIG
21:20
V
5 °C 10 km+ - 090° 090° 5 kt METAR ESSA 151920Z 09005KT 9999 FEW028 05/01 Q1001 NOSIG
20:50
V
5 °C 10 km+ - 080° 080° 7 kt METAR ESSA 151850Z 08007KT 9999 SCT026 SCT068 05/02 Q1001 NOSIG
20:20
V
6 °C 10 km+ - 070° 070° 7 kt METAR ESSA 151820Z 07007KT CAVOK 06/01 Q1001 NOSIG
19:50
V
6 °C 10 km+ - 070° 070° 7 kt METAR ESSA 151750Z 07007KT CAVOK 06/01 Q1001 NOSIG
19:20
V
7 °C 10 km+ - 090° 090° 5 kt METAR ESSA 151720Z 09005KT CAVOK 07/01 Q1001 NOSIG
18:50
V
7 °C 10 km+ - 060° 060° 6 kt METAR ESSA 151650Z 06006KT CAVOK 07/01 Q1001 NOSIG
18:20
V
7 °C 10 km+ - 060° 060° 7 kt METAR ESSA 151620Z 06007KT 350V080 CAVOK 07/01 Q1001 NOSIG
17:50
V
8 °C 10 km+ - 030° 030° 4 kt METAR ESSA 151550Z 03004KT 360V060 CAVOK 08/M03 Q1001 NOSIG
17:20
V
8 °C 10 km+ - 010° 010° 5 kt METAR ESSA 151520Z 01005KT CAVOK 08/M01 Q1001 NOSIG
16:50
V
8 °C 10 km+ - 300° 300° 6 kt METAR ESSA 151450Z 30006KT 260V010 9999 SCT040 08/M01 Q1001 NOSIG
16:20
V
8 °C 10 km+ - 280° 280° 5 kt METAR ESSA 151420Z 28005KT 190V340 9999 SCT039 08/M01 Q1001 NOSIG
15:50
V
7 °C 10 km+ - 350° 350° 6 kt METAR ESSA 151350Z 35006KT 300V020 9999 SCT047 07/01 Q1001 NOSIG
15:20
V
7 °C 10 km+ - 350° 350° 6 kt METAR ESSA 151320Z 35006KT 9999 SCT038 07/00 Q1001 NOSIG
14:50
V
7 °C 10 km+ - 310° 310° 6 kt METAR ESSA 151250Z 31006KT 9999 SCT028 07/01 Q1002 NOSIG
14:20
V
6 °C 10 km+ - 350° 350° 6 kt METAR ESSA 151220Z 35006KT 310V030 9999 SCT027 06/01 Q1002 NOSIG
13:50
M
6 °C 10 km+ 2,300 ft 320° 320° 8 kt METAR ESSA 151150Z 32008KT 9999 BKN023 BKN028 06/01 Q1002 NOSIG
13:20
M
5 °C 10 km+ 2,100 ft 320° 320° 11 kt METAR ESSA 151120Z 32011KT 9999 OVC021 05/01 Q1002 NOSIG
12:50
M
4 °C 10 km+ 1,900 ft 290° 290° 9 kt METAR ESSA 151050Z 29009KT 270V330 9999 BKN019 04/01 Q1002 NOSIG
12:20
M
4 °C 10 km+ 1,800 ft 290° 290° 9 kt METAR ESSA 151020Z 29009KT 9999 BKN018 04/01 Q1002 NOSIG
11:50
M
4 °C 10 km+ 1,500 ft 290° 290° 10 kt METAR ESSA 150950Z 29010KT 9999 OVC015 04/01 Q1002 NOSIG
11:20
M
3 °C 10 km+ 1,300 ft 290° 290° 8 kt METAR ESSA 150920Z 29008KT 9999 BKN013 OVC019 03/01 Q1002 BECMG SCT020
10:50
M
3 °C 10 km+ 1,200 ft 320° 320° 9 kt METAR ESSA 150850Z 32009KT 9999 BKN012 OVC016 03/01 Q1002 BECMG SCT020
10:20
M
3 °C 10 km+ 1,200 ft 310° 310° 11 kt METAR ESSA 150820Z 31011KT 9999 BKN012 03/01 Q1002 BECMG SCT020
09:50
I
3 °C 10 km+ 900 ft 300° 300° 10 kt METAR ESSA 150750Z 30010KT 9999 OVC009 03/01 Q1002 BECMG SCT020
09:20
I
3 °C 10 km+ 900 ft 310° 310° 10 kt METAR ESSA 150720Z 31010KT 9999 BKN009 OVC012 03/01 Q1001 BECMG SCT020
08:50
I
3 °C 10 km+ 900 ft 300° 300° 9 kt METAR ESSA 150650Z 30009KT 9999 BKN009 OVC019 03/02 Q1001 BECMG SCT020
08:20
M
2 °C 10 km+ 1,100 ft 280° 280° 8 kt METAR ESSA 150620Z 28008KT 9999 FEW008 BKN011 OVC018 02/01 Q1001 BECMG SCT020
07:50
I
1 °C 10 km+ 500 ft 300° 300° 9 kt METAR ESSA 150550Z 30009KT 9999 BKN005 BKN017 01/01 Q1001 BECMG SCT020
07:20
I
1 °C 10 km+ 500 ft 280° 280° 8 kt METAR ESSA 150520Z 28008KT 9999 -RA SCT003 BKN005 01/00 Q1001 BECMG SCT020
06:50
L
0 °C 3.3 km 400 ft 290° 290° 8 kt METAR ESSA 150450Z 29008KT 3300 -SN BKN004 OVC009 00/M00 Q1001 TEMPO 8000 -SNRA BKN008
06:20
L
0 °C 4.8 km 400 ft 280° 280° 7 kt METAR ESSA 150420Z 28007KT 4800 SN BKN004 BKN009 OVC010 00/M00 Q1001 TEMPO 8000 -SNRA BKN005
05:50
I
1 °C 7 km 500 ft 290° 290° 8 kt METAR ESSA 150350Z 29008KT 7000 -DZ BKN005 01/00 Q1001 TEMPO 4000 -RASN BKN004
05:20
I
2 °C 10 km+ 600 ft 290° 290° 9 kt METAR ESSA 150320Z 29009KT 9999 -RA OVC006 02/01 Q1000 REDZ NOSIG
04:50
I
2 °C 10 km+ 700 ft 290° 290° 9 kt METAR ESSA 150250Z 29009KT 9999 -RA OVC007 02/01 Q1000 REDZ NOSIG
04:20
I
2 °C 10 km+ 800 ft 290° 290° 11 kt METAR ESSA 150220Z 29011KT 9999 OVC008 02/01 Q1000 REDZ NOSIG
03:50
I
2 °C 10 km+ 800 ft 300° 300° 10 kt METAR ESSA 150150Z 30010KT 9999 OVC008 02/02 Q1000 NOSIG
03:20
I
3 °C 10 km+ 800 ft 300° 300° 11 kt METAR ESSA 150120Z 30011KT 9999 OVC008 03/02 Q1000 REDZ NOSIG
02:50
I
3 °C 10 km+ 900 ft 300° 300° 12 kt METAR ESSA 150050Z 30012KT 9999 OVC009 03/02 Q1000 NOSIG
02:20
I
3 °C 10 km+ 900 ft 290° 290° 13 kt METAR ESSA 150020Z 29013KT 9999 OVC009 03/02 Q0999 NOSIG
01:50
I
3 °C 10 km+ 800 ft 290° 290° 13 kt METAR ESSA 142350Z 29013KT 9999 OVC008 03/02 Q0999 NOSIG
01:20
I
4 °C 10 km+ 900 ft 290° 290° 13 kt METAR ESSA 142320Z 29013KT 9999 -DZ OVC009 04/03 Q0999 NOSIG
00:50
I
4 °C 10 km+ 700 ft 300° 300° 13 kt METAR ESSA 142250Z 30013KT 9999 -DZ OVC007 04/03 Q0998 TEMPO RA BKN010
00:20
I
4 °C 10 km+ 700 ft 290° 290° 13 kt METAR ESSA 142220Z 29013KT 9999 OVC007 04/03 Q0998 TEMPO RA BKN010

April 14, 2024

Time Code Weather Temp. Visibility Ceiling Wind METAR/SPECI
23:50
I
4 °C 10 km+ 600 ft 290° 290° 12 kt METAR ESSA 142150Z 29012KT 9999 -RA OVC006 04/04 Q0997 TEMPO RA BKN020
23:20
I
4 °C 10 km+ 700 ft 290° 290° 11 kt METAR ESSA 142120Z 29011KT 9999 -RA BKN007 OVC009 04/04 Q0997 TEMPO RA BKN020
22:50
I
5 °C 10 km+ 700 ft 290° 290° 13 kt METAR ESSA 142050Z 29013KT 9999 -DZ BKN007 05/04 Q0996 TEMPO RA BKN020
22:20
I
5 °C 10 km+ 900 ft 310° 310° 13 kt METAR ESSA 142020Z 31013KT 9999 -RA SCT006 BKN009 05/05 Q0996 TEMPO RA BKN010
21:50
I
5 °C 10 km+ 600 ft 290° 290° 12 kt METAR ESSA 141950Z 29012KT 9999 -RA BKN006 05/05 Q0995 TEMPO RA BKN010
21:20
I
5 °C 10 km+ 700 ft 300° 300° 12 kt METAR ESSA 141920Z 30012KT 9999 BKN007 05/05 Q0995 TEMPO RA BKN010
20:50
I
5 °C 10 km+ 900 ft 310° 310° 11 kt METAR ESSA 141850Z 31011KT 9999 -RA SCT007 BKN009 05/05 Q0994 TEMPO RA BKN010
20:20
I
5 °C 10 km+ 900 ft 310° 310° 14 kt METAR ESSA 141820Z 31014KT 9999 -RA BKN009 05/05 Q0994 TEMPO RA BKN010
19:50
M
6 °C 10 km+ 1,000 ft 300° 300° 12 kt METAR ESSA 141750Z 30012KT 9999 -RA BKN010 06/05 Q0993 TEMPO RA BKN009
19:20
V
6 °C 10 km+ - 310° 310° 11 kt METAR ESSA 141720Z 31011KT 9999 -RA SCT023 06/05 Q0992 TEMPO RA BKN009
18:50
M
6 °C 10 km+ 1,900 ft 310° 310° 12 kt METAR ESSA 141650Z 31012KT 9999 -RA FEW008 BKN019 06/05 Q0992 TEMPO RA BKN009
18:20
M
6 °C 9 km 1,100 ft 290° 290° 15 kt METAR ESSA 141620Z 29015KT 9000 -RA BKN011 06/05 Q0991 TEMPO RA BKN009
17:50
M
6 °C 10 km+ 2,000 ft 290° 290° 13 kt METAR ESSA 141550Z 29013KT 9999 -RA FEW006 SCT011 BKN020 06/05 Q0990 TEMPO RA BKN009
17:20
M
6 °C 6 km 1,000 ft 270° 270° 15 kt METAR ESSA 141520Z 27015KT 6000 -RA FEW004 SCT007 BKN010 06/05 Q0990 TEMPO RA BKN009
16:50
M
6 °C 10 km+ 2,100 ft 270° 270° 17 kt METAR ESSA 141450Z 27017KT 9999 -RA SCT010 BKN021 06/05 Q0989 TEMPO RA BKN009
16:20
M
6 °C 10 km+ 2,000 ft 260° 260° 15 kt METAR ESSA 141420Z 26015KT 9999 -RA SCT015 BKN020 06/05 Q0989 TEMPO SHRA BKN020CB
15:50
M
7 °C 10 km+ 1,300 ft 270° 270° 14 kt METAR ESSA 141350Z 27014KT 9999 -RA BKN013 BKN020 07/05 Q0989 TEMPO SHRA BKN020CB
15:20
M
6 °C 10 km+ 1,700 ft 250° 250° 15 kt METAR ESSA 141320Z 25015KT 9999 -RA SCT012 BKN017 06/05 Q0989 TEMPO SHRA BK010 BKN020CB
14:50
M
6 °C 10 km+ 1,400 ft 260° 260° 16 kt METAR ESSA 141250Z 26016KT 9999 DZ BKN014 06/05 Q0990 TEMPO SHRA BKN020CB
14:20
M
6 °C 10 km+ 1,300 ft 250° 250° 19 kt METAR ESSA 141220Z 25019KT 9999 -RA BKN013 06/04 Q0990 TEMPO SHRA BKN020CB
13:50
M
6 °C 10 km+ 1,400 ft 240° 240° 18 kt METAR ESSA 141150Z 24018KT 9999 BKN014 OVC023 06/04 Q0990 TEMPO SHRA BKN020CB
13:20
M
6 °C 8 km 1,100 ft 250° 250° 17 kt METAR ESSA 141120Z 25017KT 8000 -DZ BKN011 06/05 Q0990 TEMPO SHRA BKN020CB
12:50
M
6 °C 10 km+ 1,300 ft 240° 240° 18 kt METAR ESSA 141050Z 24018KT 9999 BKN013 BKN022 06/04 Q0990 TEMPO SHRA BKN020CB
12:20
M
6 °C 10 km+ 1,400 ft 240° 240° 16 kt METAR ESSA 141020Z 24016KT 9999 -DZ SCT010 BKN014 OVC018 06/04 Q0990 TEMPO SHRA BKN020CB
11:50
M
6 °C 7 km 1,300 ft 230° 230° 17 kt METAR ESSA 140950Z 23017KT 7000 -DZ FEW009 BKN013 BKN019 06/04 Q0990 TEMPO SHRA BKN020CB
11:20
M
7 °C 10 km+ 1,800 ft 230° 230° 16 kt METAR ESSA 140920Z 23016KT 9999 -DZ BKN018 07/04 Q0990 TEMPO SHRA BKN020CB
10:50
M
6 °C 10 km+ 2,100 ft 230° 230° 16 kt METAR ESSA 140850Z 23016KT 9999 FEW015 BKN021 06/04 Q0990 TEMPO SHRA BKN020CB
10:20
M
7 °C 10 km+ 2,400 ft 240° 240° 17 kt METAR ESSA 140820Z 24017KT 9999 SCT017 BKN024 07/05 Q0991 TEMPO SHRA BKN020CB
09:50
M
6 °C 10 km+ 2,300 ft 220° 220° 14 kt METAR ESSA 140750Z 22014KT 9999 SCT017 BKN023 06/05 Q0991 TEMPO SHRA BKN020CB
09:20
V
6 °C 10 km+ 3,100 ft 240° 240° 11 kt METAR ESSA 140720Z 24011KT 9999 -DZ BKN031 06/04 Q0991 TEMPO 4000 RA
08:50
M
6 °C 8 km 1,000 ft 240° 240° 20 kt METAR ESSA 140650Z 24020KT 8000 -RA BKN010 06/04 Q0992 TEMPO 4000 RA
08:20
V
7 °C 9 km 3,600 ft 160° 160° 12 kt METAR ESSA 140620Z 16012KT 9000 -RA FEW006 SCT018 BKN036 07/06 Q0992 TEMPO 4000 RA
07:50
V
7 °C 10 km+ 4,600 ft 170° 170° 9 kt METAR ESSA 140550Z 17009KT 9999 -RA FEW011 SCT032 BKN046 07/06 Q0993 TEMPO 4000 RA
Report a change